sensor_id;sensor_type;location;lat;lon;timestamp;pressure;altitude;pressure_sealevel;temperature;humidity
75045;BME280;63614;56.026;35.960;2023-01-16T00:01:41;99040.16;;;-2.38;72.95
75045;BME280;63614;56.026;35.960;2023-01-16T00:04:07;99023.50;;;-2.31;72.66
75045;BME280;63614;56.026;35.960;2023-01-16T00:06:33;99032.75;;;-2.41;73.25
75045;BME280;63614;56.026;35.960;2023-01-16T00:09:00;99027.31;;;-2.37;72.73
75045;BME280;63614;56.026;35.960;2023-01-16T00:11:26;99011.34;;;-2.39;73.30
75045;BME280;63614;56.026;35.960;2023-01-16T00:13:52;99020.13;;;-2.43;73.06
75045;BME280;63614;56.026;35.960;2023-01-16T00:16:18;99016.19;;;-2.47;73.37
75045;BME280;63614;56.026;35.960;2023-01-16T00:18:46;99017.66;;;-2.56;73.48
75045;BME280;63614;56.026;35.960;2023-01-16T00:21:11;99004.25;;;-2.58;73.86
75045;BME280;63614;56.026;35.960;2023-01-16T00:23:37;98999.84;;;-2.56;73.85
75045;BME280;63614;56.026;35.960;2023-01-16T00:26:07;98993.72;;;-2.53;73.71
75045;BME280;63614;56.026;35.960;2023-01-16T00:28:33;98982.97;;;-2.57;74.12
75045;BME280;63614;56.026;35.960;2023-01-16T00:30:59;98996.84;;;-2.61;73.95
75045;BME280;63614;56.026;35.960;2023-01-16T00:33:25;98978.09;;;-2.60;73.94
75045;BME280;63614;56.026;35.960;2023-01-16T00:35:51;98979.72;;;-2.47;73.83
75045;BME280;63614;56.026;35.960;2023-01-16T00:38:17;98985.97;;;-2.40;73.49
75045;BME280;63614;56.026;35.960;2023-01-16T00:40:44;98993.72;;;-2.42;73.48
75045;BME280;63614;56.026;35.960;2023-01-16T00:43:09;98997.19;;;-2.43;73.61
75045;BME280;63614;56.026;35.960;2023-01-16T00:45:35;98983.88;;;-2.58;74.27
75045;BME280;63614;56.026;35.960;2023-01-16T00:48:01;98987.81;;;-2.53;74.06
75045;BME280;63614;56.026;35.960;2023-01-16T00:50:27;98973.56;;;-2.56;74.17
75045;BME280;63614;56.026;35.960;2023-01-16T00:52:53;98978.09;;;-2.60;74.27
75045;BME280;63614;56.026;35.960;2023-01-16T00:55:18;98978.22;;;-2.61;74.27
75045;BME280;63614;56.026;35.960;2023-01-16T00:57:44;98978.31;;;-2.63;74.71
75045;BME280;63614;56.026;35.960;2023-01-16T01:00:10;98977.38;;;-2.62;74.63
75045;BME280;63614;56.026;35.960;2023-01-16T01:02:36;98967.19;;;-2.62;74.72
75045;BME280;63614;56.026;35.960;2023-01-16T01:05:02;98976.56;;;-2.74;75.07
75045;BME280;63614;56.026;35.960;2023-01-16T01:07:29;98968.03;;;-2.61;74.60
75045;BME280;63614;56.026;35.960;2023-01-16T01:09:54;98970.34;;;-2.47;74.48
75045;BME280;63614;56.026;35.960;2023-01-16T01:12:20;98963.41;;;-2.56;74.88
75045;BME280;63614;56.026;35.960;2023-01-16T01:14:46;98960.38;;;-2.61;74.81
75045;BME280;63614;56.026;35.960;2023-01-16T01:17:11;98972.44;;;-2.52;74.68
75045;BME280;63614;56.026;35.960;2023-01-16T01:19:37;98964.19;;;-2.56;74.26
75045;BME280;63614;56.026;35.960;2023-01-16T01:22:03;98966.38;;;-2.62;74.58
75045;BME280;63614;56.026;35.960;2023-01-16T01:24:29;98966.75;;;-2.56;74.94
75045;BME280;63614;56.026;35.960;2023-01-16T01:26:54;98958.06;;;-2.53;74.70
75045;BME280;63614;56.026;35.960;2023-01-16T01:29:20;98969.91;;;-2.52;74.26
75045;BME280;63614;56.026;35.960;2023-01-16T01:31:46;98958.66;;;-2.49;74.51
75045;BME280;63614;56.026;35.960;2023-01-16T01:34:11;98966.84;;;-2.57;74.54
75045;BME280;63614;56.026;35.960;2023-01-16T01:36:37;98966.28;;;-2.61;74.82
75045;BME280;63614;56.026;35.960;2023-01-16T01:39:03;98967.69;;;-2.57;74.41
75045;BME280;63614;56.026;35.960;2023-01-16T01:41:28;98969.72;;;-2.62;74.38
75045;BME280;63614;56.026;35.960;2023-01-16T01:43:55;98963.84;;;-2.62;74.39
75045;BME280;63614;56.026;35.960;2023-01-16T01:46:39;98977.75;;;-2.44;74.14
75045;BME280;63614;56.026;35.960;2023-01-16T01:49:11;98965.69;;;-2.64;74.57
75045;BME280;63614;56.026;35.960;2023-01-16T01:51:41;98966.16;;;-2.70;74.88
75045;BME280;63614;56.026;35.960;2023-01-16T01:54:12;98960.03;;;-2.57;74.55
75045;BME280;63614;56.026;35.960;2023-01-16T01:56:46;98963.59;;;-2.70;74.97
75045;BME280;63614;56.026;35.960;2023-01-16T01:59:20;98958.97;;;-2.77;75.20
75045;BME280;63614;56.026;35.960;2023-01-16T02:01:49;98950.31;;;-2.74;75.59
75045;BME280;63614;56.026;35.960;2023-01-16T02:04:19;98954.22;;;-2.70;75.20
75045;BME280;63614;56.026;35.960;2023-01-16T02:07:04;98946.13;;;-2.64;75.28
75045;BME280;63614;56.026;35.960;2023-01-16T02:09:31;98943.13;;;-2.69;75.27
75045;BME280;63614;56.026;35.960;2023-01-16T02:12:00;98937.22;;;-2.69;75.48
75045;BME280;63614;56.026;35.960;2023-01-16T02:14:32;98948.09;;;-2.79;75.64
75045;BME280;63614;56.026;35.960;2023-01-16T02:17:09;98932.94;;;-2.80;76.11
75045;BME280;63614;56.026;35.960;2023-01-16T02:25:36;98942.78;;;-2.76;76.03
75045;BME280;63614;56.026;35.960;2023-01-16T02:34:23;98961.03;;;-2.82;76.59
75045;BME280;63614;56.026;35.960;2023-01-16T02:42:26;98951.31;;;-2.77;76.29
75045;BME280;63614;56.026;35.960;2023-01-16T02:52:50;98942.97;;;-2.90;76.49
75045;BME280;63614;56.026;35.960;2023-01-16T02:57:50;98946.78;;;-2.96;75.95
75045;BME280;63614;56.026;35.960;2023-01-16T03:00:20;98926.41;;;-2.96;75.76
75045;BME280;63614;56.026;35.960;2023-01-16T03:02:47;98923.19;;;-2.98;75.82
75045;BME280;63614;56.026;35.960;2023-01-16T03:05:13;98928.75;;;-2.81;75.42
75045;BME280;63614;56.026;35.960;2023-01-16T03:07:55;98917.97;;;-2.96;76.15
75045;BME280;63614;56.026;35.960;2023-01-16T03:16:01;98914.28;;;-2.92;76.38
75045;BME280;63614;56.026;35.960;2023-01-16T03:23:55;98886.53;;;-2.95;76.71
75045;BME280;63614;56.026;35.960;2023-01-16T03:30:25;98880.38;;;-3.04;76.85
75045;BME280;63614;56.026;35.960;2023-01-16T03:32:33;98871.69;;;-3.13;77.27
75045;BME280;63614;56.026;35.960;2023-01-16T03:35:17;98860.00;;;-3.15;77.45
75045;BME280;63614;56.026;35.960;2023-01-16T03:37:49;98857.56;;;-3.17;77.13
75045;BME280;63614;56.026;35.960;2023-01-16T03:40:26;98860.47;;;-2.99;76.80
75045;BME280;63614;56.026;35.960;2023-01-16T03:43:08;98852.72;;;-2.97;76.68
75045;BME280;63614;56.026;35.960;2023-01-16T03:45:45;98866.28;;;-2.97;76.75
75045;BME280;63614;56.026;35.960;2023-01-16T03:48:20;98859.44;;;-2.96;76.83
75045;BME280;63614;56.026;35.960;2023-01-16T03:50:53;98860.00;;;-3.04;76.69
75045;BME280;63614;56.026;35.960;2023-01-16T03:53:24;98838.50;;;-3.11;77.29
75045;BME280;63614;56.026;35.960;2023-01-16T03:58:23;98864.19;;;-3.03;76.89
75045;BME280;63614;56.026;35.960;2023-01-16T04:00:59;98843.22;;;-3.06;76.83
75045;BME280;63614;56.026;35.960;2023-01-16T04:08:59;98843.38;;;-2.97;77.18
75045;BME280;63614;56.026;35.960;2023-01-16T04:11:27;98856.00;;;-2.95;76.81
75045;BME280;63614;56.026;35.960;2023-01-16T04:13:57;98831.56;;;-2.98;77.27
75045;BME280;63614;56.026;35.960;2023-01-16T04:16:24;98844.88;;;-2.94;76.97
75045;BME280;63614;56.026;35.960;2023-01-16T04:18:53;98839.31;;;-3.11;77.53
75045;BME280;63614;56.026;35.960;2023-01-16T04:21:26;98846.97;;;-2.99;77.38
75045;BME280;63614;56.026;35.960;2023-01-16T04:23:55;98837.00;;;-3.02;77.83
75045;BME280;63614;56.026;35.960;2023-01-16T04:26:22;98832.16;;;-3.05;77.61
75045;BME280;63614;56.026;35.960;2023-01-16T04:28:48;98845.94;;;-2.97;77.62
75045;BME280;63614;56.026;35.960;2023-01-16T04:31:19;98841.41;;;-3.16;78.32
75045;BME280;63614;56.026;35.960;2023-01-16T04:33:44;98832.69;;;-3.24;78.45
75045;BME280;63614;56.026;35.960;2023-01-16T04:36:10;98791.22;;;-3.14;78.39
75045;BME280;63614;56.026;35.960;2023-01-16T04:38:36;98843.59;;;-3.11;78.59
75045;BME280;63614;56.026;35.960;2023-01-16T04:41:02;98838.84;;;-3.16;78.44
75045;BME280;63614;56.026;35.960;2023-01-16T04:43:27;98847.06;;;-3.12;78.81
75045;BME280;63614;56.026;35.960;2023-01-16T04:45:53;98835.34;;;-3.26;78.83
75045;BME280;63614;56.026;35.960;2023-01-16T04:48:19;98847.72;;;-3.21;78.85
75045;BME280;63614;56.026;35.960;2023-01-16T04:50:48;98842.09;;;-3.14;78.68
75045;BME280;63614;56.026;35.960;2023-01-16T04:53:13;98833.28;;;-3.10;78.26
75045;BME280;63614;56.026;35.960;2023-01-16T04:55:39;98840.44;;;-3.15;78.08
75045;BME280;63614;56.026;35.960;2023-01-16T04:58:05;98843.34;;;-3.08;78.20
75045;BME280;63614;56.026;35.960;2023-01-16T05:00:31;98837.44;;;-3.20;78.58
75045;BME280;63614;56.026;35.960;2023-01-16T05:02:56;98841.28;;;-3.25;78.17
75045;BME280;63614;56.026;35.960;2023-01-16T05:05:22;98827.38;;;-3.33;79.08
75045;BME280;63614;56.026;35.960;2023-01-16T05:07:48;98845.31;;;-3.23;78.41
75045;BME280;63614;56.026;35.960;2023-01-16T05:10:34;98845.06;;;-3.31;78.30
75045;BME280;63614;56.026;35.960;2023-01-16T05:12:59;98831.22;;;-3.27;78.10
75045;BME280;63614;56.026;35.960;2023-01-16T05:15:25;98845.53;;;-3.15;77.84
75045;BME280;63614;56.026;35.960;2023-01-16T05:17:51;98828.44;;;-3.13;77.76
75045;BME280;63614;56.026;35.960;2023-01-16T05:20:16;98836.75;;;-3.33;78.28
75045;BME280;63614;56.026;35.960;2023-01-16T05:22:42;98835.78;;;-3.32;78.50
75045;BME280;63614;56.026;35.960;2023-01-16T05:25:08;98851.22;;;-3.11;77.56
75045;BME280;63614;56.026;35.960;2023-01-16T05:27:34;98845.63;;;-3.28;77.81
75045;BME280;63614;56.026;35.960;2023-01-16T05:29:59;98850.50;;;-3.24;77.90
75045;BME280;63614;56.026;35.960;2023-01-16T05:32:25;98841.16;;;-3.13;77.64
75045;BME280;63614;56.026;35.960;2023-01-16T05:34:51;98843.44;;;-3.21;77.52
75045;BME280;63614;56.026;35.960;2023-01-16T05:37:17;98813.88;;;-3.22;77.70
75045;BME280;63614;56.026;35.960;2023-01-16T05:39:42;98842.28;;;-3.28;78.46
75045;BME280;63614;56.026;35.960;2023-01-16T05:42:08;98835.56;;;-3.29;78.19
75045;BME280;63614;56.026;35.960;2023-01-16T05:44:50;98844.84;;;-3.17;78.08
75045;BME280;63614;56.026;35.960;2023-01-16T05:47:17;98850.97;;;-3.19;77.98
75045;BME280;63614;56.026;35.960;2023-01-16T05:49:43;98848.91;;;-3.14;77.74
75045;BME280;63614;56.026;35.960;2023-01-16T05:52:09;98842.97;;;-3.26;77.78
75045;BME280;63614;56.026;35.960;2023-01-16T05:54:35;98847.41;;;-3.17;77.51
75045;BME280;63614;56.026;35.960;2023-01-16T05:57:01;98841.38;;;-3.27;78.22
75045;BME280;63614;56.026;35.960;2023-01-16T05:59:27;98845.97;;;-3.32;78.29
75045;BME280;63614;56.026;35.960;2023-01-16T06:01:52;98855.22;;;-3.31;78.43
75045;BME280;63614;56.026;35.960;2023-01-16T06:04:18;98856.97;;;-3.32;78.29
75045;BME280;63614;56.026;35.960;2023-01-16T06:06:45;98853.47;;;-3.31;78.63
75045;BME280;63614;56.026;35.960;2023-01-16T06:09:11;98851.56;;;-3.27;78.49
75045;BME280;63614;56.026;35.960;2023-01-16T06:11:37;98857.66;;;-3.30;78.30
75045;BME280;63614;56.026;35.960;2023-01-16T06:14:03;98852.56;;;-3.30;78.79
75045;BME280;63614;56.026;35.960;2023-01-16T06:16:34;98862.38;;;-3.36;78.78
75045;BME280;63614;56.026;35.960;2023-01-16T06:19:00;98847.50;;;-3.30;78.57
75045;BME280;63614;56.026;35.960;2023-01-16T06:21:26;98852.31;;;-3.38;79.12
75045;BME280;63614;56.026;35.960;2023-01-16T06:23:52;98848.50;;;-3.32;78.63
75045;BME280;63614;56.026;35.960;2023-01-16T06:26:18;98847.13;;;-3.36;78.51
75045;BME280;63614;56.026;35.960;2023-01-16T06:28:45;98835.44;;;-3.39;78.89
75045;BME280;63614;56.026;35.960;2023-01-16T06:31:11;98851.78;;;-3.19;78.27
75045;BME280;63614;56.026;35.960;2023-01-16T06:33:37;98849.91;;;-3.28;78.68
75045;BME280;63614;56.026;35.960;2023-01-16T06:36:04;98849.44;;;-3.33;78.76
75045;BME280;63614;56.026;35.960;2023-01-16T06:38:30;98849.94;;;-3.17;77.96
75045;BME280;63614;56.026;35.960;2023-01-16T06:40:56;98846.59;;;-3.17;78.32
75045;BME280;63614;56.026;35.960;2023-01-16T06:43:26;98837.53;;;-3.33;78.44
75045;BME280;63614;56.026;35.960;2023-01-16T06:45:53;98837.28;;;-3.41;78.81
75045;BME280;63614;56.026;35.960;2023-01-16T06:48:19;98856.59;;;-3.38;78.88
75045;BME280;63614;56.026;35.960;2023-01-16T06:50:45;98847.03;;;-3.35;79.06
75045;BME280;63614;56.026;35.960;2023-01-16T06:53:14;98852.03;;;-3.22;78.39
75045;BME280;63614;56.026;35.960;2023-01-16T06:55:40;98858.78;;;-3.34;78.76
75045;BME280;63614;56.026;35.960;2023-01-16T06:58:08;98845.38;;;-3.36;78.78
75045;BME280;63614;56.026;35.960;2023-01-16T07:00:34;98845.72;;;-3.40;78.79
75045;BME280;63614;56.026;35.960;2023-01-16T07:03:00;98853.72;;;-3.34;78.84
75045;BME280;63614;56.026;35.960;2023-01-16T07:05:28;98853.63;;;-3.21;78.58
75045;BME280;63614;56.026;35.960;2023-01-16T07:07:55;98848.41;;;-3.31;78.02
75045;BME280;63614;56.026;35.960;2023-01-16T07:10:21;98853.97;;;-3.25;78.33
75045;BME280;63614;56.026;35.960;2023-01-16T07:12:48;98858.94;;;-3.24;78.28
75045;BME280;63614;56.026;35.960;2023-01-16T07:15:14;98831.03;;;-3.37;78.89
75045;BME280;63614;56.026;35.960;2023-01-16T07:17:59;98851.44;;;-3.25;78.30
75045;BME280;63614;56.026;35.960;2023-01-16T07:20:50;98848.91;;;-3.25;78.12
75045;BME280;63614;56.026;35.960;2023-01-16T07:23:41;98847.72;;;-3.33;78.64
75045;BME280;63614;56.026;35.960;2023-01-16T07:26:09;98847.13;;;-3.36;78.84
75045;BME280;63614;56.026;35.960;2023-01-16T07:28:36;98838.97;;;-3.17;78.41
75045;BME280;63614;56.026;35.960;2023-01-16T07:31:02;98831.91;;;-3.25;78.51
75045;BME280;63614;56.026;35.960;2023-01-16T07:33:29;98843.56;;;-3.22;78.36
75045;BME280;63614;56.026;35.960;2023-01-16T07:35:55;98840.31;;;-3.36;78.71
75045;BME280;63614;56.026;35.960;2023-01-16T07:38:21;98837.97;;;-3.39;79.40
75045;BME280;63614;56.026;35.960;2023-01-16T07:40:47;98838.00;;;-3.28;78.99
75045;BME280;63614;56.026;35.960;2023-01-16T07:43:13;98839.03;;;-3.41;79.09
75045;BME280;63614;56.026;35.960;2023-01-16T07:45:38;98844.91;;;-3.41;79.16
75045;BME280;63614;56.026;35.960;2023-01-16T07:48:04;98834.06;;;-3.43;79.08
75045;BME280;63614;56.026;35.960;2023-01-16T07:50:30;98842.63;;;-3.33;78.78
75045;BME280;63614;56.026;35.960;2023-01-16T07:52:59;98842.28;;;-3.28;78.76
75045;BME280;63614;56.026;35.960;2023-01-16T07:55:31;98833.84;;;-3.29;78.86
75045;BME280;63614;56.026;35.960;2023-01-16T07:58:00;98817.97;;;-3.43;79.06
75045;BME280;63614;56.026;35.960;2023-01-16T08:00:26;98826.44;;;-3.32;78.42
75045;BME280;63614;56.026;35.960;2023-01-16T08:02:52;98830.09;;;-3.47;78.67
75045;BME280;63614;56.026;35.960;2023-01-16T08:05:18;98836.88;;;-3.23;78.80
75045;BME280;63614;56.026;35.960;2023-01-16T08:07:43;98841.94;;;-3.35;78.88
75045;BME280;63614;56.026;35.960;2023-01-16T08:10:10;98841.22;;;-3.37;78.95
75045;BME280;63614;56.026;35.960;2023-01-16T08:12:37;98839.16;;;-3.43;79.08
75045;BME280;63614;56.026;35.960;2023-01-16T08:15:04;98838.22;;;-3.31;79.52
75045;BME280;63614;56.026;35.960;2023-01-16T08:17:30;98839.75;;;-3.17;78.63
75045;BME280;63614;56.026;35.960;2023-01-16T08:19:56;98842.41;;;-3.18;78.71
75045;BME280;63614;56.026;35.960;2023-01-16T08:22:21;98825.41;;;-3.29;78.90
75045;BME280;63614;56.026;35.960;2023-01-16T08:24:47;98840.34;;;-3.13;78.32
75045;BME280;63614;56.026;35.960;2023-01-16T08:27:13;98832.81;;;-3.15;78.16
75045;BME280;63614;56.026;35.960;2023-01-16T08:29:39;98819.53;;;-3.18;78.43
75045;BME280;63614;56.026;35.960;2023-01-16T08:32:04;98828.56;;;-3.14;78.16
75045;BME280;63614;56.026;35.960;2023-01-16T08:34:31;98819.53;;;-3.07;78.27
75045;BME280;63614;56.026;35.960;2023-01-16T08:36:56;98827.50;;;-3.23;78.78
75045;BME280;63614;56.026;35.960;2023-01-16T08:39:22;98812.69;;;-3.18;78.77
75045;BME280;63614;56.026;35.960;2023-01-16T08:41:50;98816.19;;;-3.19;78.59
75045;BME280;63614;56.026;35.960;2023-01-16T08:44:35;98822.53;;;-3.24;78.73
75045;BME280;63614;56.026;35.960;2023-01-16T08:47:23;98812.56;;;-3.28;78.86
75045;BME280;63614;56.026;35.960;2023-01-16T08:50:11;98816.28;;;-3.32;78.96
75045;BME280;63614;56.026;35.960;2023-01-16T08:52:57;98807.81;;;-3.32;79.44
75045;BME280;63614;56.026;35.960;2023-01-16T08:55:22;98810.38;;;-3.32;79.31
75045;BME280;63614;56.026;35.960;2023-01-16T08:57:48;98835.56;;;-3.29;79.30
75045;BME280;63614;56.026;35.960;2023-01-16T09:00:14;98814.88;;;-3.24;79.17
75045;BME280;63614;56.026;35.960;2023-01-16T09:02:40;98824.59;;;-3.30;79.20
75045;BME280;63614;56.026;35.960;2023-01-16T09:05:06;98830.25;;;-3.37;79.08
75045;BME280;63614;56.026;35.960;2023-01-16T09:07:32;98829.22;;;-3.35;79.47
75045;BME280;63614;56.026;35.960;2023-01-16T09:09:58;98820.53;;;-3.32;79.48
75045;BME280;63614;56.026;35.960;2023-01-16T09:12:24;98834.78;;;-3.30;79.18
75045;BME280;63614;56.026;35.960;2023-01-16T09:15:08;98835.47;;;-3.28;79.28
75045;BME280;63614;56.026;35.960;2023-01-16T09:17:35;98821.94;;;-3.39;79.39
75045;BME280;63614;56.026;35.960;2023-01-16T09:20:00;98843.09;;;-3.16;79.20
75045;BME280;63614;56.026;35.960;2023-01-16T09:22:28;98846.34;;;-3.25;79.27
75045;BME280;63614;56.026;35.960;2023-01-16T09:24:54;98825.03;;;-3.36;79.31
75045;BME280;63614;56.026;35.960;2023-01-16T09:27:20;98835.22;;;-3.36;79.34
75045;BME280;63614;56.026;35.960;2023-01-16T09:29:46;98829.88;;;-3.44;79.81
75045;BME280;63614;56.026;35.960;2023-01-16T09:32:12;98827.72;;;-3.26;79.27
75045;BME280;63614;56.026;35.960;2023-01-16T09:34:38;98832.44;;;-3.33;79.25
75045;BME280;63614;56.026;35.960;2023-01-16T09:37:05;98824.25;;;-3.25;78.99
75045;BME280;63614;56.026;35.960;2023-01-16T09:39:31;98834.78;;;-3.18;79.27
75045;BME280;63614;56.026;35.960;2023-01-16T09:42:26;98826.06;;;-3.38;78.93
75045;BME280;63614;56.026;35.960;2023-01-16T09:45:16;98819.84;;;-3.34;79.29
75045;BME280;63614;56.026;35.960;2023-01-16T09:47:50;98832.81;;;-3.26;79.52
75045;BME280;63614;56.026;35.960;2023-01-16T09:50:40;98821.94;;;-3.28;79.16
75045;BME280;63614;56.026;35.960;2023-01-16T09:53:16;98832.47;;;-3.10;79.06
75045;BME280;63614;56.026;35.960;2023-01-16T09:56:02;98820.56;;;-3.21;78.94
75045;BME280;63614;56.026;35.960;2023-01-16T10:01:47;98820.31;;;-3.18;78.86
75045;BME280;63614;56.026;35.960;2023-01-16T10:04:21;98826.25;;;-3.17;79.01
75045;BME280;63614;56.026;35.960;2023-01-16T10:12:12;98813.97;;;-3.23;78.89
75045;BME280;63614;56.026;35.960;2023-01-16T10:18:38;98808.78;;;-3.11;78.53
75045;BME280;63614;56.026;35.960;2023-01-16T10:23:33;98796.19;;;-3.23;78.71
75045;BME280;63614;56.026;35.960;2023-01-16T10:26:46;98785.22;;;-3.13;78.37
75045;BME280;63614;56.026;35.960;2023-01-16T10:32:29;98793.75;;;-3.02;78.15
75045;BME280;63614;56.026;35.960;2023-01-16T10:35:16;98799.41;;;-2.99;78.25
75045;BME280;63614;56.026;35.960;2023-01-16T10:37:46;98787.75;;;-3.01;78.09
75045;BME280;63614;56.026;35.960;2023-01-16T10:40:19;98787.28;;;-2.95;78.34
75045;BME280;63614;56.026;35.960;2023-01-16T10:43:01;98781.03;;;-2.91;77.85
75045;BME280;63614;56.026;35.960;2023-01-16T10:45:46;98773.50;;;-3.15;78.03
75045;BME280;63614;56.026;35.960;2023-01-16T10:48:32;98792.13;;;-2.92;77.91
75045;BME280;63614;56.026;35.960;2023-01-16T10:51:16;98784.63;;;-2.82;77.92
75045;BME280;63614;56.026;35.960;2023-01-16T10:53:42;98790.19;;;-3.00;78.04
75045;BME280;63614;56.026;35.960;2023-01-16T10:56:08;98786.13;;;-2.91;78.05
75045;BME280;63614;56.026;35.960;2023-01-16T10:58:37;98783.47;;;-3.01;78.33
75045;BME280;63614;56.026;35.960;2023-01-16T11:01:22;98788.22;;;-2.96;77.95
75045;BME280;63614;56.026;35.960;2023-01-16T11:03:53;98796.19;;;-2.89;78.11
75045;BME280;63614;56.026;35.960;2023-01-16T11:06:22;98787.41;;;-2.97;77.61
75045;BME280;63614;56.026;35.960;2023-01-16T11:08:53;98790.03;;;-3.10;78.55
75045;BME280;63614;56.026;35.960;2023-01-16T11:11:19;98794.94;;;-2.95;78.30
75045;BME280;63614;56.026;35.960;2023-01-16T11:17:23;98787.28;;;-2.84;77.49
75045;BME280;63614;56.026;35.960;2023-01-16T11:20:34;98784.25;;;-3.00;77.48
75045;BME280;63614;56.026;35.960;2023-01-16T11:23:05;98790.28;;;-2.79;77.24
75045;BME280;63614;56.026;35.960;2023-01-16T11:25:39;98784.63;;;-2.82;76.84
75045;BME280;63614;56.026;35.960;2023-01-16T11:28:07;98781.13;;;-2.93;77.32
75045;BME280;63614;56.026;35.960;2023-01-16T11:30:43;98789.13;;;-2.86;77.14
75045;BME280;63614;56.026;35.960;2023-01-16T11:33:16;98793.75;;;-2.91;77.02
75045;BME280;63614;56.026;35.960;2023-01-16T11:35:50;98790.28;;;-2.90;77.15
75045;BME280;63614;56.026;35.960;2023-01-16T11:38:17;98801.16;;;-2.99;77.25
75045;BME280;63614;56.026;35.960;2023-01-16T11:40:46;98793.75;;;-2.91;77.16
75045;BME280;63614;56.026;35.960;2023-01-16T11:43:15;98799.63;;;-2.90;77.27
75045;BME280;63614;56.026;35.960;2023-01-16T11:46:05;98793.06;;;-3.04;77.30
75045;BME280;63614;56.026;35.960;2023-01-16T11:48:42;98797.59;;;-2.97;77.52
75045;BME280;63614;56.026;35.960;2023-01-16T11:51:13;98811.00;;;-2.95;77.05
75045;BME280;63614;56.026;35.960;2023-01-16T11:53:39;98799.75;;;-2.92;76.82
75045;BME280;63614;56.026;35.960;2023-01-16T11:56:33;98818.06;;;-2.87;77.34
75045;BME280;63614;56.026;35.960;2023-01-16T12:04:32;98820.25;;;-2.82;77.24
75045;BME280;63614;56.026;35.960;2023-01-16T12:12:18;98825.47;;;-2.72;77.79
75045;BME280;63614;56.026;35.960;2023-01-16T12:15:09;98824.75;;;-2.86;77.78
75045;BME280;63614;56.026;35.960;2023-01-16T12:17:59;98839.09;;;-2.85;77.82
75045;BME280;63614;56.026;35.960;2023-01-16T12:24:14;98841.19;;;-2.79;77.67
75045;BME280;63614;56.026;35.960;2023-01-16T12:26:37;98834.34;;;-2.89;77.80
75045;BME280;63614;56.026;35.960;2023-01-16T12:42:45;98832.50;;;-2.87;78.28
75045;BME280;63614;56.026;35.960;2023-01-16T12:45:48;98835.41;;;-2.81;78.26
75045;BME280;63614;56.026;35.960;2023-01-16T12:56:34;98855.50;;;-2.78;77.90
75045;BME280;63614;56.026;35.960;2023-01-16T12:59:16;98843.84;;;-2.92;78.38
75045;BME280;63614;56.026;35.960;2023-01-16T13:01:46;98850.31;;;-2.87;78.73
75045;BME280;63614;56.026;35.960;2023-01-16T13:04:24;98848.81;;;-2.90;78.73
75045;BME280;63614;56.026;35.960;2023-01-16T13:06:56;98852.50;;;-2.94;79.08
75045;BME280;63614;56.026;35.960;2023-01-16T13:15:17;98850.69;;;-2.81;78.29
75045;BME280;63614;56.026;35.960;2023-01-16T13:18:00;98860.75;;;-2.79;78.14
75045;BME280;63614;56.026;35.960;2023-01-16T13:20:30;98844.75;;;-3.04;78.64
75045;BME280;63614;56.026;35.960;2023-01-16T13:23:17;98858.06;;;-2.89;78.59
75045;BME280;63614;56.026;35.960;2023-01-16T13:25:47;98860.16;;;-2.83;78.78
75045;BME280;63614;56.026;35.960;2023-01-16T13:28:18;98856.69;;;-2.93;78.74
75045;BME280;63614;56.026;35.960;2023-01-16T13:30:52;98847.41;;;-2.83;78.42
75045;BME280;63614;56.026;35.960;2023-01-16T13:33:23;98857.50;;;-2.81;78.81
75045;BME280;63614;56.026;35.960;2023-01-16T13:44:13;98863.63;;;-2.95;78.94
75045;BME280;63614;56.026;35.960;2023-01-16T13:47:11;98865.13;;;-2.81;78.90
75045;BME280;63614;56.026;35.960;2023-01-16T13:49:39;98870.56;;;-2.86;78.82
75045;BME280;63614;56.026;35.960;2023-01-16T13:52:17;98861.09;;;-2.84;78.73
75045;BME280;63614;56.026;35.960;2023-01-16T13:54:44;98868.00;;;-2.75;78.74
75045;BME280;63614;56.026;35.960;2023-01-16T13:57:15;98870.56;;;-2.86;79.28
75045;BME280;63614;56.026;35.960;2023-01-16T14:00:07;98864.31;;;-2.82;78.97
75045;BME280;63614;56.026;35.960;2023-01-16T14:02:45;98862.69;;;-2.94;79.41
75045;BME280;63614;56.026;35.960;2023-01-16T14:10:45;98870.22;;;-2.81;79.76
75045;BME280;63614;56.026;35.960;2023-01-16T14:13:35;98865.81;;;-2.90;80.42
75045;BME280;63614;56.026;35.960;2023-01-16T14:19:20;98877.06;;;-2.82;80.83
75045;BME280;63614;56.026;35.960;2023-01-16T14:21:47;98872.31;;;-2.75;80.28
75045;BME280;63614;56.026;35.960;2023-01-16T14:24:45;98875.75;;;-2.76;80.10
75045;BME280;63614;56.026;35.960;2023-01-16T14:27:18;98869.28;;;-2.58;79.89
75045;BME280;63614;56.026;35.960;2023-01-16T14:29:49;98869.88;;;-2.65;79.92
75045;BME280;63614;56.026;35.960;2023-01-16T14:32:18;98866.75;;;-2.69;80.11
75045;BME280;63614;56.026;35.960;2023-01-16T14:34:59;98871.84;;;-2.58;80.64
75045;BME280;63614;56.026;35.960;2023-01-16T14:38:02;98867.22;;;-2.64;80.12
75045;BME280;63614;56.026;35.960;2023-01-16T14:40:35;98870.81;;;-2.66;80.50
75045;BME280;63614;56.026;35.960;2023-01-16T14:43:32;98866.06;;;-2.82;81.31
75045;BME280;63614;56.026;35.960;2023-01-16T14:52:43;98865.34;;;-2.73;80.81
75045;BME280;63614;56.026;35.960;2023-01-16T14:55:59;98868.97;;;-2.76;80.33
75045;BME280;63614;56.026;35.960;2023-01-16T14:58:48;98879.13;;;-2.76;80.67
75045;BME280;63614;56.026;35.960;2023-01-16T15:01:25;98874.06;;;-2.76;80.44
75045;BME280;63614;56.026;35.960;2023-01-16T15:04:12;98879.59;;;-2.82;80.21
75045;BME280;63614;56.026;35.960;2023-01-16T15:06:43;98884.69;;;-2.82;80.13
75045;BME280;63614;56.026;35.960;2023-01-16T15:09:15;98879.47;;;-2.69;80.54
75045;BME280;63614;56.026;35.960;2023-01-16T15:11:54;98882.72;;;-2.78;80.50
75045;BME280;63614;56.026;35.960;2023-01-16T15:14:23;98884.34;;;-2.66;80.35
75045;BME280;63614;56.026;35.960;2023-01-16T15:22:50;98879.34;;;-2.90;80.27
75045;BME280;63614;56.026;35.960;2023-01-16T15:27:49;98889.19;;;-2.85;80.76
75045;BME280;63614;56.026;35.960;2023-01-16T15:30:17;98882.81;;;-2.80;80.06
75045;BME280;63614;56.026;35.960;2023-01-16T15:32:59;98876.13;;;-2.81;80.34
75045;BME280;63614;56.026;35.960;2023-01-16T15:35:44;98891.03;;;-2.87;79.73
75045;BME280;63614;56.026;35.960;2023-01-16T15:38:19;98880.28;;;-2.80;79.95